sensor_id;sensor_type;location;lat;lon;timestamp;pressure;altitude;pressure_sealevel;temperature;humidity
4830;BME280;2429;52.586;14.322;2022-07-10T00:02:13;101853.34;;;11.17;83.29
4830;BME280;2429;52.586;14.322;2022-07-10T00:04:40;101858.09;;;11.10;83.88
4830;BME280;2429;52.586;14.322;2022-07-10T00:07:07;101852.56;;;10.97;82.92
4830;BME280;2429;52.586;14.322;2022-07-10T00:09:34;101850.69;;;10.99;82.91
4830;BME280;2429;52.586;14.322;2022-07-10T00:12:01;101860.66;;;11.12;82.75
4830;BME280;2429;52.586;14.322;2022-07-10T00:14:29;101849.88;;;10.99;83.00
4830;BME280;2429;52.586;14.322;2022-07-10T00:16:56;101858.09;;;11.10;82.03
4830;BME280;2429;52.586;14.322;2022-07-10T00:19:24;101858.38;;;11.04;81.41
4830;BME280;2429;52.586;14.322;2022-07-10T00:21:51;101856.63;;;11.05;81.08
4830;BME280;2429;52.586;14.322;2022-07-10T00:24:18;101854.06;;;11.03;80.84
4830;BME280;2429;52.586;14.322;2022-07-10T00:26:45;101846.47;;;10.97;80.82
4830;BME280;2429;52.586;14.322;2022-07-10T00:29:14;101846.31;;;11.00;80.89
4830;BME280;2429;52.586;14.322;2022-07-10T00:31:42;101852.94;;;11.07;80.75
4830;BME280;2429;52.586;14.322;2022-07-10T00:34:08;101850.19;;;11.10;80.31
4830;BME280;2429;52.586;14.322;2022-07-10T00:36:35;101851.78;;;11.13;79.50
4830;BME280;2429;52.586;14.322;2022-07-10T00:39:03;101854.44;;;11.13;79.70
4830;BME280;2429;52.586;14.322;2022-07-10T00:41:30;101851.34;;;11.05;79.60
4830;BME280;2429;52.586;14.322;2022-07-10T00:43:58;101844.28;;;11.05;79.80
4830;BME280;2429;52.586;14.322;2022-07-10T00:46:27;101842.81;;;11.17;79.60
4830;BME280;2429;52.586;14.322;2022-07-10T00:48:55;101837.69;;;11.14;79.38
4830;BME280;2429;52.586;14.322;2022-07-10T00:51:24;101838.63;;;11.13;79.30
4830;BME280;2429;52.586;14.322;2022-07-10T00:53:53;101838.44;;;11.16;79.55
4830;BME280;2429;52.586;14.322;2022-07-10T00:56:24;101829.88;;;11.12;79.18
4830;BME280;2429;52.586;14.322;2022-07-10T00:58:51;101834.97;;;11.15;78.91
4830;BME280;2429;52.586;14.322;2022-07-10T01:01:19;101827.47;;;11.08;79.20
4830;BME280;2429;52.586;14.322;2022-07-10T01:03:46;101828.47;;;11.05;79.78
4830;BME280;2429;52.586;14.322;2022-07-10T01:06:14;101837.94;;;11.09;79.12
4830;BME280;2429;52.586;14.322;2022-07-10T01:08:42;101826.38;;;10.94;79.90
4830;BME280;2429;52.586;14.322;2022-07-10T01:11:09;101829.41;;;10.87;81.07
4830;BME280;2429;52.586;14.322;2022-07-10T01:13:37;101834.06;;;10.99;80.17
4830;BME280;2429;52.586;14.322;2022-07-10T01:16:04;101824.28;;;11.01;79.52
4830;BME280;2429;52.586;14.322;2022-07-10T01:18:31;101820.56;;;10.88;79.84
4830;BME280;2429;52.586;14.322;2022-07-10T01:20:59;101825.75;;;10.89;79.87
4830;BME280;2429;52.586;14.322;2022-07-10T01:23:26;101823.75;;;10.94;78.95
4830;BME280;2429;52.586;14.322;2022-07-10T01:25:53;101821.03;;;10.96;79.13
4830;BME280;2429;52.586;14.322;2022-07-10T01:28:21;101818.72;;;10.90;79.73
4830;BME280;2429;52.586;14.322;2022-07-10T01:30:48;101815.38;;;10.86;79.26
4830;BME280;2429;52.586;14.322;2022-07-10T01:33:15;101816.09;;;10.90;79.01
4830;BME280;2429;52.586;14.322;2022-07-10T01:35:42;101810.88;;;10.88;78.98
4830;BME280;2429;52.586;14.322;2022-07-10T01:38:10;101811.13;;;10.83;78.65
4830;BME280;2429;52.586;14.322;2022-07-10T01:40:37;101805.94;;;10.82;78.86
4830;BME280;2429;52.586;14.322;2022-07-10T01:43:05;101809.41;;;10.82;78.86
4830;BME280;2429;52.586;14.322;2022-07-10T01:45:33;101806.22;;;10.76;79.44
4830;BME280;2429;52.586;14.322;2022-07-10T01:48:00;101809.25;;;10.68;79.14
4830;BME280;2429;52.586;14.322;2022-07-10T01:50:27;101806.91;;;10.62;79.17
4830;BME280;2429;52.586;14.322;2022-07-10T01:52:55;101805.44;;;10.56;79.18
4830;BME280;2429;52.586;14.322;2022-07-10T01:55:22;101803.44;;;10.61;79.78
4830;BME280;2429;52.586;14.322;2022-07-10T01:57:49;101803.06;;;10.69;79.53
4830;BME280;2429;52.586;14.322;2022-07-10T02:00:16;101799.94;;;10.78;78.80
4830;BME280;2429;52.586;14.322;2022-07-10T02:02:44;101806.28;;;10.74;79.49
4830;BME280;2429;52.586;14.322;2022-07-10T02:05:31;101803.66;;;10.74;79.04
4830;BME280;2429;52.586;14.322;2022-07-10T02:07:58;101802.13;;;10.70;79.25
4830;BME280;2429;52.586;14.322;2022-07-10T02:10:26;101806.06;;;10.79;79.27
4830;BME280;2429;52.586;14.322;2022-07-10T02:12:53;101802.34;;;10.83;78.73
4830;BME280;2429;52.586;14.322;2022-07-10T02:15:20;101803.50;;;10.77;78.93
4830;BME280;2429;52.586;14.322;2022-07-10T02:17:47;101800.50;;;10.67;78.79
4830;BME280;2429;52.586;14.322;2022-07-10T02:20:15;101793.91;;;10.59;79.23
4830;BME280;2429;52.586;14.322;2022-07-10T02:22:43;101788.41;;;10.63;78.54
4830;BME280;2429;52.586;14.322;2022-07-10T02:25:10;101790.03;;;10.66;78.83
4830;BME280;2429;52.586;14.322;2022-07-10T02:27:37;101785.09;;;10.60;78.87
4830;BME280;2429;52.586;14.322;2022-07-10T02:30:04;101785.63;;;10.66;78.60
4830;BME280;2429;52.586;14.322;2022-07-10T02:32:32;101782.69;;;10.55;78.36
4830;BME280;2429;52.586;14.322;2022-07-10T02:34:59;101775.28;;;10.44;79.40
4830;BME280;2429;52.586;14.322;2022-07-10T02:37:27;101780.97;;;10.54;78.85
4830;BME280;2429;52.586;14.322;2022-07-10T02:39:54;101778.50;;;10.51;77.88
4830;BME280;2429;52.586;14.322;2022-07-10T02:42:21;101774.84;;;10.54;78.17
4830;BME280;2429;52.586;14.322;2022-07-10T02:44:48;101772.22;;;10.54;78.33
4830;BME280;2429;52.586;14.322;2022-07-10T02:47:16;101774.94;;;10.52;77.94
4830;BME280;2429;52.586;14.322;2022-07-10T02:49:44;101781.72;;;10.56;78.19
4830;BME280;2429;52.586;14.322;2022-07-10T02:52:11;101778.78;;;10.62;78.22
4830;BME280;2429;52.586;14.322;2022-07-10T02:54:38;101777.25;;;10.58;78.08
4830;BME280;2429;52.586;14.322;2022-07-10T02:57:05;101775.94;;;10.67;77.72
4830;BME280;2429;52.586;14.322;2022-07-10T02:59:32;101780.19;;;10.70;77.46
4830;BME280;2429;52.586;14.322;2022-07-10T03:01:59;101781.91;;;10.71;77.40
4830;BME280;2429;52.586;14.322;2022-07-10T03:04:28;101780.50;;;10.63;76.78
4830;BME280;2429;52.586;14.322;2022-07-10T03:06:55;101771.97;;;10.76;77.10
4830;BME280;2429;52.586;14.322;2022-07-10T03:09:22;101771.38;;;10.71;77.34
4830;BME280;2429;52.586;14.322;2022-07-10T03:11:49;101768.19;;;10.64;76.80
4830;BME280;2429;52.586;14.322;2022-07-10T03:14:16;101768.25;;;10.62;76.53
4830;BME280;2429;52.586;14.322;2022-07-10T03:16:44;101761.13;;;10.47;77.63
4830;BME280;2429;52.586;14.322;2022-07-10T03:19:11;101766.00;;;10.55;78.07
4830;BME280;2429;52.586;14.322;2022-07-10T03:21:39;101763.88;;;10.63;77.20
4830;BME280;2429;52.586;14.322;2022-07-10T03:24:06;101754.56;;;10.73;76.80
4830;BME280;2429;52.586;14.322;2022-07-10T03:26:33;101760.59;;;10.58;77.29
4830;BME280;2429;52.586;14.322;2022-07-10T03:29:00;101761.53;;;10.57;76.67
4830;BME280;2429;52.586;14.322;2022-07-10T03:31:27;101766.50;;;10.63;76.85
4830;BME280;2429;52.586;14.322;2022-07-10T03:33:55;101770.53;;;10.70;77.36
4830;BME280;2429;52.586;14.322;2022-07-10T03:36:22;101771.13;;;10.75;77.16
4830;BME280;2429;52.586;14.322;2022-07-10T03:38:49;101776.25;;;10.78;77.16
4830;BME280;2429;52.586;14.322;2022-07-10T03:41:17;101774.94;;;10.87;76.90
4830;BME280;2429;52.586;14.322;2022-07-10T03:43:44;101777.25;;;10.93;76.45
4830;BME280;2429;52.586;14.322;2022-07-10T03:46:11;101764.41;;;10.87;76.07
4830;BME280;2429;52.586;14.322;2022-07-10T03:48:38;101775.47;;;10.94;75.35
4830;BME280;2429;52.586;14.322;2022-07-10T03:51:06;101775.25;;;10.98;75.31
4830;BME280;2429;52.586;14.322;2022-07-10T03:53:33;101772.38;;;11.03;75.44
4830;BME280;2429;52.586;14.322;2022-07-10T03:56:04;101768.72;;;11.06;75.48
4830;BME280;2429;52.586;14.322;2022-07-10T03:58:31;101772.22;;;11.06;75.00
4830;BME280;2429;52.586;14.322;2022-07-10T04:00:59;101770.66;;;11.02;74.88
4830;BME280;2429;52.586;14.322;2022-07-10T04:03:26;101777.84;;;11.16;75.64
4830;BME280;2429;52.586;14.322;2022-07-10T04:05:53;101777.34;;;11.25;74.66
4830;BME280;2429;52.586;14.322;2022-07-10T04:08:20;101768.34;;;11.29;74.49
4830;BME280;2429;52.586;14.322;2022-07-10T04:10:48;101772.13;;;11.41;73.75
4830;BME280;2429;52.586;14.322;2022-07-10T04:13:16;101775.56;;;11.43;73.48
4830;BME280;2429;52.586;14.322;2022-07-10T04:15:43;101770.97;;;11.47;73.54
4830;BME280;2429;52.586;14.322;2022-07-10T04:18:10;101762.59;;;11.38;73.50
4830;BME280;2429;52.586;14.322;2022-07-10T04:20:37;101766.97;;;11.22;74.22
4830;BME280;2429;52.586;14.322;2022-07-10T04:23:04;101768.69;;;11.23;74.54
4830;BME280;2429;52.586;14.322;2022-07-10T04:25:32;101774.66;;;11.27;75.26
4830;BME280;2429;52.586;14.322;2022-07-10T04:27:59;101770.41;;;11.40;74.86
4830;BME280;2429;52.586;14.322;2022-07-10T04:30:26;101768.41;;;11.45;75.22
4830;BME280;2429;52.586;14.322;2022-07-10T04:32:54;101766.19;;;11.53;74.46
4830;BME280;2429;52.586;14.322;2022-07-10T04:35:21;101759.00;;;11.57;74.70
4830;BME280;2429;52.586;14.322;2022-07-10T04:37:48;101756.53;;;11.54;74.89
4830;BME280;2429;52.586;14.322;2022-07-10T04:40:15;101760.06;;;11.53;74.44
4830;BME280;2429;52.586;14.322;2022-07-10T04:42:42;101758.19;;;11.55;74.61
4830;BME280;2429;52.586;14.322;2022-07-10T04:45:10;101758.28;;;11.53;74.02
4830;BME280;2429;52.586;14.322;2022-07-10T04:47:37;101761.16;;;11.49;74.90
4830;BME280;2429;52.586;14.322;2022-07-10T04:50:04;101771.47;;;11.37;75.72
4830;BME280;2429;52.586;14.322;2022-07-10T04:52:32;101765.72;;;11.29;77.04
4830;BME280;2429;52.586;14.322;2022-07-10T04:54:59;101779.69;;;11.31;77.40
4830;BME280;2429;52.586;14.322;2022-07-10T04:57:26;101776.03;;;11.34;78.21
4830;BME280;2429;52.586;14.322;2022-07-10T04:59:53;101779.13;;;11.42;78.68
4830;BME280;2429;52.586;14.322;2022-07-10T05:02:21;101779.88;;;11.44;78.86
4830;BME280;2429;52.586;14.322;2022-07-10T05:04:49;101780.91;;;11.42;78.50
4830;BME280;2429;52.586;14.322;2022-07-10T05:07:15;101780.34;;;11.52;78.80
4830;BME280;2429;52.586;14.322;2022-07-10T05:09:43;101778.28;;;11.42;79.14
4830;BME280;2429;52.586;14.322;2022-07-10T05:12:09;101781.63;;;11.28;79.94
4830;BME280;2429;52.586;14.322;2022-07-10T05:14:36;101768.56;;;11.42;79.82
4830;BME280;2429;52.586;14.322;2022-07-10T05:17:04;101780.59;;;11.48;80.24
4830;BME280;2429;52.586;14.322;2022-07-10T05:19:30;101770.47;;;11.56;79.95
4830;BME280;2429;52.586;14.322;2022-07-10T05:21:58;101767.72;;;11.75;79.11
4830;BME280;2429;52.586;14.322;2022-07-10T05:24:25;101759.56;;;11.96;78.32
4830;BME280;2429;52.586;14.322;2022-07-10T05:26:52;101760.91;;;12.03;77.25
4830;BME280;2429;52.586;14.322;2022-07-10T05:29:19;101761.41;;;12.25;76.94
4830;BME280;2429;52.586;14.322;2022-07-10T05:31:47;101758.88;;;12.38;76.06
4830;BME280;2429;52.586;14.322;2022-07-10T05:34:14;101759.75;;;12.69;74.30
4830;BME280;2429;52.586;14.322;2022-07-10T05:36:41;101759.28;;;13.22;72.88
4830;BME280;2429;52.586;14.322;2022-07-10T05:39:08;101757.13;;;13.43;70.10
4830;BME280;2429;52.586;14.322;2022-07-10T05:41:35;101754.47;;;13.72;70.18
4830;BME280;2429;52.586;14.322;2022-07-10T05:44:03;101753.41;;;13.74;69.51
4830;BME280;2429;52.586;14.322;2022-07-10T05:46:30;101759.56;;;13.60;68.30
4830;BME280;2429;52.586;14.322;2022-07-10T05:48:57;101759.66;;;13.44;68.82
4830;BME280;2429;52.586;14.322;2022-07-10T05:51:24;101763.34;;;13.56;68.38
4830;BME280;2429;52.586;14.322;2022-07-10T05:54:10;101763.34;;;13.71;67.60
4830;BME280;2429;52.586;14.322;2022-07-10T05:56:37;101772.09;;;14.00;66.99
4830;BME280;2429;52.586;14.322;2022-07-10T05:59:04;101770.50;;;13.97;66.55
4830;BME280;2429;52.586;14.322;2022-07-10T06:01:31;101765.16;;;14.39;65.32
4830;BME280;2429;52.586;14.322;2022-07-10T06:03:58;101768.28;;;14.71;63.24
4830;BME280;2429;52.586;14.322;2022-07-10T06:06:25;101770.41;;;14.66;63.29
4830;BME280;2429;52.586;14.322;2022-07-10T06:08:52;101763.16;;;15.34;61.50
4830;BME280;2429;52.586;14.322;2022-07-10T06:11:20;101766.38;;;15.64;61.23
4830;BME280;2429;52.586;14.322;2022-07-10T06:13:47;101757.97;;;16.31;59.32
4830;BME280;2429;52.586;14.322;2022-07-10T06:16:14;101757.16;;;17.24;55.98
4830;BME280;2429;52.586;14.322;2022-07-10T06:18:41;101763.47;;;16.76;55.37
4830;BME280;2429;52.586;14.322;2022-07-10T06:21:09;101759.94;;;16.05;56.48
4830;BME280;2429;52.586;14.322;2022-07-10T06:23:36;101757.72;;;15.99;56.00
4830;BME280;2429;52.586;14.322;2022-07-10T06:26:03;101759.84;;;15.43;56.96
4830;BME280;2429;52.586;14.322;2022-07-10T06:28:30;101754.81;;;15.77;56.98
4830;BME280;2429;52.586;14.322;2022-07-10T06:30:57;101745.88;;;17.54;53.65
4830;BME280;2429;52.586;14.322;2022-07-10T06:33:26;101746.84;;;18.94;49.34
4830;BME280;2429;52.586;14.322;2022-07-10T06:35:53;101733.00;;;20.02;46.86
4830;BME280;2429;52.586;14.322;2022-07-10T06:38:20;101729.06;;;20.55;45.11
4830;BME280;2429;52.586;14.322;2022-07-10T06:40:47;101731.66;;;21.87;42.53
4830;BME280;2429;52.586;14.322;2022-07-10T06:43:14;101734.00;;;21.44;41.07
4830;BME280;2429;52.586;14.322;2022-07-10T06:45:41;101729.06;;;20.15;43.52
4830;BME280;2429;52.586;14.322;2022-07-10T06:48:08;101739.38;;;18.67;47.34
4830;BME280;2429;52.586;14.322;2022-07-10T06:50:36;101741.16;;;17.81;49.22
4830;BME280;2429;52.586;14.322;2022-07-10T06:53:03;101743.59;;;17.05;51.21
4830;BME280;2429;52.586;14.322;2022-07-10T06:55:31;101744.31;;;16.24;53.74
4830;BME280;2429;52.586;14.322;2022-07-10T06:57:59;101751.28;;;15.77;55.78
4830;BME280;2429;52.586;14.322;2022-07-10T07:00:26;101755.28;;;15.46;56.32
4830;BME280;2429;52.586;14.322;2022-07-10T07:02:53;101758.81;;;15.20;56.94
4830;BME280;2429;52.586;14.322;2022-07-10T07:05:20;101758.34;;;14.75;58.11
4830;BME280;2429;52.586;14.322;2022-07-10T07:07:48;101759.88;;;14.12;59.47
4830;BME280;2429;52.586;14.322;2022-07-10T07:10:15;101762.63;;;13.96;59.96
4830;BME280;2429;52.586;14.322;2022-07-10T07:12:42;101774.59;;;13.60;60.90
4830;BME280;2429;52.586;14.322;2022-07-10T07:15:09;101771.00;;;13.61;61.18
4830;BME280;2429;52.586;14.322;2022-07-10T07:17:40;101771.19;;;13.58;62.20
4830;BME280;2429;52.586;14.322;2022-07-10T07:20:33;101778.66;;;13.51;62.27
4830;BME280;2429;52.586;14.322;2022-07-10T07:23:19;101783.38;;;13.46;62.34
4830;BME280;2429;52.586;14.322;2022-07-10T07:25:47;101777.78;;;13.50;61.68
4830;BME280;2429;52.586;14.322;2022-07-10T07:28:14;101781.13;;;13.54;62.76
4830;BME280;2429;52.586;14.322;2022-07-10T07:30:46;101778.00;;;13.62;63.01
4830;BME280;2429;52.586;14.322;2022-07-10T07:33:14;101781.66;;;13.74;62.47
4830;BME280;2429;52.586;14.322;2022-07-10T07:35:41;101773.44;;;13.78;62.13
4830;BME280;2429;52.586;14.322;2022-07-10T07:38:08;101777.00;;;13.77;62.25
4830;BME280;2429;52.586;14.322;2022-07-10T07:40:35;101776.81;;;13.80;61.62
4830;BME280;2429;52.586;14.322;2022-07-10T07:43:04;101780.25;;;13.97;61.51
4830;BME280;2429;52.586;14.322;2022-07-10T07:45:31;101776.63;;;14.25;60.24
4830;BME280;2429;52.586;14.322;2022-07-10T07:47:59;101772.84;;;14.69;59.69
4830;BME280;2429;52.586;14.322;2022-07-10T07:50:27;101774.59;;;15.22;57.14
4830;BME280;2429;52.586;14.322;2022-07-10T07:52:55;101768.66;;;15.94;55.98
4830;BME280;2429;52.586;14.322;2022-07-10T07:55:22;101767.78;;;16.30;53.90
4830;BME280;2429;52.586;14.322;2022-07-10T07:57:53;101761.88;;;16.74;53.13
4830;BME280;2429;52.586;14.322;2022-07-10T08:00:21;101764.50;;;16.98;52.16
4830;BME280;2429;52.586;14.322;2022-07-10T08:02:50;101759.09;;;17.33;51.15
4830;BME280;2429;52.586;14.322;2022-07-10T08:05:17;101752.19;;;17.31;51.06
4830;BME280;2429;52.586;14.322;2022-07-10T08:07:47;101755.19;;;17.49;50.70
4830;BME280;2429;52.586;14.322;2022-07-10T08:10:18;101755.22;;;17.26;50.20
4830;BME280;2429;52.586;14.322;2022-07-10T08:12:46;101757.50;;;17.53;49.26
4830;BME280;2429;52.586;14.322;2022-07-10T08:15:16;101754.84;;;17.53;49.19
4830;BME280;2429;52.586;14.322;2022-07-10T08:17:47;101758.13;;;17.23;49.50
4830;BME280;2429;52.586;14.322;2022-07-10T08:20:15;101760.53;;;17.04;49.49
4830;BME280;2429;52.586;14.322;2022-07-10T08:22:43;101764.50;;;16.98;50.01
4830;BME280;2429;52.586;14.322;2022-07-10T08:25:12;101762.66;;;16.87;50.38
4830;BME280;2429;52.586;14.322;2022-07-10T08:27:41;101752.09;;;16.74;50.61
4830;BME280;2429;52.586;14.322;2022-07-10T08:30:09;101754.78;;;16.86;50.71
4830;BME280;2429;52.586;14.322;2022-07-10T08:32:38;101756.22;;;16.78;51.27
4830;BME280;2429;52.586;14.322;2022-07-10T08:35:07;101759.06;;;16.64;52.03
4830;BME280;2429;52.586;14.322;2022-07-10T08:37:37;101755.44;;;16.65;52.09
4830;BME280;2429;52.586;14.322;2022-07-10T08:40:07;101753.72;;;16.53;52.67
4830;BME280;2429;52.586;14.322;2022-07-10T08:42:36;101757.63;;;16.36;52.42
4830;BME280;2429;52.586;14.322;2022-07-10T08:45:04;101759.47;;;16.82;50.83
4830;BME280;2429;52.586;14.322;2022-07-10T08:47:34;101756.75;;;18.29;48.54
4830;BME280;2429;52.586;14.322;2022-07-10T08:50:06;101748.31;;;19.39;45.94
4830;BME280;2429;52.586;14.322;2022-07-10T08:52:43;101746.13;;;19.54;44.94
4830;BME280;2429;52.586;14.322;2022-07-10T08:55:15;101760.09;;;18.85;46.21
4830;BME280;2429;52.586;14.322;2022-07-10T08:57:44;101754.16;;;18.06;46.91
4830;BME280;2429;52.586;14.322;2022-07-10T09:00:12;101753.28;;;18.17;47.96
4830;BME280;2429;52.586;14.322;2022-07-10T09:02:40;101762.50;;;19.09;46.24
4830;BME280;2429;52.586;14.322;2022-07-10T09:05:08;101759.78;;;19.30;44.92
4830;BME280;2429;52.586;14.322;2022-07-10T09:07:35;101760.84;;;19.18;44.22
4830;BME280;2429;52.586;14.322;2022-07-10T09:10:06;101762.34;;;18.47;45.20
4830;BME280;2429;52.586;14.322;2022-07-10T09:12:56;101762.22;;;17.61;47.17
4830;BME280;2429;52.586;14.322;2022-07-10T09:15:22;101763.59;;;16.75;49.15
4830;BME280;2429;52.586;14.322;2022-07-10T09:17:51;101769.91;;;16.50;49.20
4830;BME280;2429;52.586;14.322;2022-07-10T09:20:24;101769.50;;;16.07;50.62
4830;BME280;2429;52.586;14.322;2022-07-10T09:22:52;101771.28;;;16.31;51.32
4830;BME280;2429;52.586;14.322;2022-07-10T09:25:19;101769.75;;;16.75;51.24
4830;BME280;2429;52.586;14.322;2022-07-10T09:27:52;101769.38;;;17.49;48.60
4830;BME280;2429;52.586;14.322;2022-07-10T09:30:37;101761.25;;;18.17;47.15
4830;BME280;2429;52.586;14.322;2022-07-10T09:33:18;101752.81;;;20.09;43.63
4830;BME280;2429;52.586;14.322;2022-07-10T09:41:16;101744.63;;;23.24;35.29
4830;BME280;2429;52.586;14.322;2022-07-10T09:43:46;101751.47;;;22.66;36.52
4830;BME280;2429;52.586;14.322;2022-07-10T09:46:16;101751.34;;;22.14;37.62
4830;BME280;2429;52.586;14.322;2022-07-10T09:48:44;101749.44;;;22.42;37.60
4830;BME280;2429;52.586;14.322;2022-07-10T09:51:11;101747.78;;;21.77;38.04
4830;BME280;2429;52.586;14.322;2022-07-10T09:53:41;101753.53;;;21.54;38.73
4830;BME280;2429;52.586;14.322;2022-07-10T09:56:11;101748.66;;;20.26;40.49
4830;BME280;2429;52.586;14.322;2022-07-10T09:58:39;101755.59;;;19.68;42.18
4830;BME280;2429;52.586;14.322;2022-07-10T10:01:09;101756.75;;;18.62;44.87
4830;BME280;2429;52.586;14.322;2022-07-10T10:03:37;101762.59;;;18.12;45.10
4830;BME280;2429;52.586;14.322;2022-07-10T10:11:05;101760.06;;;17.44;47.83
4830;BME280;2429;52.586;14.322;2022-07-10T10:13:42;101759.06;;;17.79;47.43
4830;BME280;2429;52.586;14.322;2022-07-10T10:16:10;101755.16;;;18.27;45.99
4830;BME280;2429;52.586;14.322;2022-07-10T10:18:40;101740.63;;;20.36;42.40
4830;BME280;2429;52.586;14.322;2022-07-10T10:21:30;101744.63;;;20.79;40.24
4830;BME280;2429;52.586;14.322;2022-07-10T10:23:59;101737.13;;;20.45;39.54
4830;BME280;2429;52.586;14.322;2022-07-10T10:26:30;101746.38;;;20.02;41.38
4830;BME280;2429;52.586;14.322;2022-07-10T10:29:00;101741.72;;;20.04;41.34
4830;BME280;2429;52.586;14.322;2022-07-10T10:31:29;101730.63;;;20.47;39.59
4830;BME280;2429;52.586;14.322;2022-07-10T10:33:57;101738.63;;;20.47;39.86
4830;BME280;2429;52.586;14.322;2022-07-10T10:39:04;101728.34;;;23.00;36.36
4830;BME280;2429;52.586;14.322;2022-07-10T10:41:40;101716.75;;;25.63;32.14
4830;BME280;2429;52.586;14.322;2022-07-10T10:49:21;101726.81;;;26.61;29.60
4830;BME280;2429;52.586;14.322;2022-07-10T10:54:25;101730.41;;;24.08;32.39
4830;BME280;2429;52.586;14.322;2022-07-10T10:57:12;101734.94;;;23.99;32.47
4830;BME280;2429;52.586;14.322;2022-07-10T11:00:00;101742.25;;;23.21;33.99
4830;BME280;2429;52.586;14.322;2022-07-10T11:02:36;101735.41;;;22.30;36.30
4830;BME280;2429;52.586;14.322;2022-07-10T11:07:55;101741.63;;;21.11;38.30
4830;BME280;2429;52.586;14.322;2022-07-10T11:10:32;101744.38;;;21.29;37.82
4830;BME280;2429;52.586;14.322;2022-07-10T11:13:00;101739.13;;;22.73;35.58
4830;BME280;2429;52.586;14.322;2022-07-10T11:15:27;101737.81;;;24.30;33.21
4830;BME280;2429;52.586;14.322;2022-07-10T11:18:03;101732.81;;;25.16;31.22
4830;BME280;2429;52.586;14.322;2022-07-10T11:20:31;101717.97;;;24.56;31.28
4830;BME280;2429;52.586;14.322;2022-07-10T11:23:02;101725.03;;;24.16;33.07
4830;BME280;2429;52.586;14.322;2022-07-10T11:25:42;101718.25;;;23.79;32.73
4830;BME280;2429;52.586;14.322;2022-07-10T11:28:17;101734.22;;;22.51;33.83
4830;BME280;2429;52.586;14.322;2022-07-10T11:30:54;101742.53;;;21.85;35.05
4830;BME280;2429;52.586;14.322;2022-07-10T11:33:21;101737.53;;;21.72;35.59
4830;BME280;2429;52.586;14.322;2022-07-10T11:35:50;101737.03;;;22.93;33.59
4830;BME280;2429;52.586;14.322;2022-07-10T11:42:00;101721.22;;;25.47;29.74
4830;BME280;2429;52.586;14.322;2022-07-10T11:44:28;101716.28;;;25.28;29.97
4830;BME280;2429;52.586;14.322;2022-07-10T11:46:55;101720.16;;;24.28;31.13
4830;BME280;2429;52.586;14.322;2022-07-10T11:49:23;101717.63;;;24.59;31.55
4830;BME280;2429;52.586;14.322;2022-07-10T11:52:00;101718.31;;;25.88;28.61
4830;BME280;2429;52.586;14.322;2022-07-10T11:54:27;101718.13;;;26.36;27.97
4830;BME280;2429;52.586;14.322;2022-07-10T11:56:54;101724.97;;;24.90;29.78
4830;BME280;2429;52.586;14.322;2022-07-10T11:59:25;101736.56;;;23.32;32.14
4830;BME280;2429;52.586;14.322;2022-07-10T12:01:53;101734.53;;;22.30;33.56
4830;BME280;2429;52.586;14.322;2022-07-10T12:04:21;101746.44;;;21.08;36.12
4830;BME280;2429;52.586;14.322;2022-07-10T12:06:52;101749.22;;;20.20;37.74
4830;BME280;2429;52.586;14.322;2022-07-10T12:09:21;101750.88;;;19.51;38.49
4830;BME280;2429;52.586;14.322;2022-07-10T12:11:59;101752.03;;;19.48;39.47
4830;BME280;2429;52.586;14.322;2022-07-10T12:14:27;101743.13;;;19.88;39.25
4830;BME280;2429;52.586;14.322;2022-07-10T12:16:55;101743.69;;;20.60;37.69
4830;BME280;2429;52.586;14.322;2022-07-10T12:19:27;101734.53;;;20.73;36.27
4830;BME280;2429;52.586;14.322;2022-07-10T12:21:55;101744.97;;;20.56;37.28
4830;BME280;2429;52.586;14.322;2022-07-10T12:24:23;101745.69;;;20.48;37.73
4830;BME280;2429;52.586;14.322;2022-07-10T12:26:51;101748.09;;;20.32;37.58
4830;BME280;2429;52.586;14.322;2022-07-10T12:29:26;101743.31;;;20.45;36.53
4830;BME280;2429;52.586;14.322;2022-07-10T12:31:57;101753.16;;;20.35;37.11
4830;BME280;2429;52.586;14.322;2022-07-10T12:34:33;101750.06;;;20.20;37.59
4830;BME280;2429;52.586;14.322;2022-07-10T12:37:07;101756.34;;;19.90;38.18
4830;BME280;2429;52.586;14.322;2022-07-10T12:39:48;101766.63;;;20.14;38.54
4830;BME280;2429;52.586;14.322;2022-07-10T12:42:25;101757.78;;;20.52;36.21
4830;BME280;2429;52.586;14.322;2022-07-10T12:44:52;101758.47;;;20.64;36.86
4830;BME280;2429;52.586;14.322;2022-07-10T12:47:20;101753.72;;;21.43;35.84
4830;BME280;2429;52.586;14.322;2022-07-10T12:49:48;101754.34;;;21.65;34.56
4830;BME280;2429;52.586;14.322;2022-07-10T12:52:19;101744.56;;;21.46;34.35
4830;BME280;2429;52.586;14.322;2022-07-10T12:54:46;101742.97;;;21.53;34.16
4830;BME280;2429;52.586;14.322;2022-07-10T12:57:13;101751.94;;;21.06;35.72
4830;BME280;2429;52.586;14.322;2022-07-10T12:59:41;101757.38;;;20.57;36.99
4830;BME280;2429;52.586;14.322;2022-07-10T13:02:29;101764.50;;;19.88;38.25
4830;BME280;2429;52.586;14.322;2022-07-10T13:04:57;101755.72;;;19.67;38.28
4830;BME280;2429;52.586;14.322;2022-07-10T13:10:01;101747.34;;;20.10;38.04
4830;BME280;2429;52.586;14.322;2022-07-10T13:12:30;101748.47;;;20.17;36.22
4830;BME280;2429;52.586;14.322;2022-07-10T13:14:57;101745.84;;;20.47;36.40
4830;BME280;2429;52.586;14.322;2022-07-10T13:17:24;101742.78;;;20.89;36.52
4830;BME280;2429;52.586;14.322;2022-07-10T13:19:51;101747.78;;;20.25;36.78
4830;BME280;2429;52.586;14.322;2022-07-10T13:22:18;101745.50;;;19.91;37.46
4830;BME280;2429;52.586;14.322;2022-07-10T13:24:46;101748.91;;;20.03;37.46
4830;BME280;2429;52.586;14.322;2022-07-10T13:27:13;101736.13;;;20.36;37.13
4830;BME280;2429;52.586;14.322;2022-07-10T13:29:40;101737.03;;;20.84;35.85
4830;BME280;2429;52.586;14.322;2022-07-10T13:32:07;101744.75;;;20.97;35.54
4830;BME280;2429;52.586;14.322;2022-07-10T13:34:34;101734.41;;;21.12;35.32
4830;BME280;2429;52.586;14.322;2022-07-10T13:37:03;101740.22;;;21.63;34.36
4830;BME280;2429;52.586;14.322;2022-07-10T13:39:31;101747.03;;;21.85;34.18